sensor_id;sensor_type;location;lat;lon;timestamp;pressure;altitude;pressure_sealevel;temperature;humidity
34674;BME280;20879;55.668;37.858;2022-10-26T00:01:50;100329.09;;;-2.13;96.97
34674;BME280;20879;55.668;37.858;2022-10-26T00:04:19;100315.94;;;-2.23;96.66
34674;BME280;20879;55.668;37.858;2022-10-26T00:07:01;100331.09;;;-2.25;97.05
34674;BME280;20879;55.668;37.858;2022-10-26T00:09:35;100309.06;;;-2.44;97.33
34674;BME280;20879;55.668;37.858;2022-10-26T00:12:05;100330.69;;;-2.34;96.95
34674;BME280;20879;55.668;37.858;2022-10-26T00:14:34;100325.28;;;-2.40;97.19
34674;BME280;20879;55.668;37.858;2022-10-26T00:17:03;100325.72;;;-2.49;97.65
34674;BME280;20879;55.668;37.858;2022-10-26T00:19:32;100313.34;;;-2.61;97.38
34674;BME280;20879;55.668;37.858;2022-10-26T00:22:05;100321.84;;;-2.60;97.77
34674;BME280;20879;55.668;37.858;2022-10-26T00:24:34;100326.91;;;-2.60;98.07
34674;BME280;20879;55.668;37.858;2022-10-26T00:27:14;100329.50;;;-2.59;97.69
34674;BME280;20879;55.668;37.858;2022-10-26T00:29:48;100324.31;;;-2.62;97.91
34674;BME280;20879;55.668;37.858;2022-10-26T00:32:18;100324.44;;;-2.59;97.94
34674;BME280;20879;55.668;37.858;2022-10-26T00:34:52;100314.16;;;-2.62;97.89
34674;BME280;20879;55.668;37.858;2022-10-26T00:37:23;100316.91;;;-2.57;98.17
34674;BME280;20879;55.668;37.858;2022-10-26T00:39:52;100300.38;;;-2.67;98.45
34674;BME280;20879;55.668;37.858;2022-10-26T00:42:21;100307.19;;;-2.66;98.27
34674;BME280;20879;55.668;37.858;2022-10-26T00:45:00;100313.84;;;-2.68;98.07
34674;BME280;20879;55.668;37.858;2022-10-26T00:47:36;100311.09;;;-2.73;98.57
34674;BME280;20879;55.668;37.858;2022-10-26T00:50:09;100308.50;;;-2.74;98.25
34674;BME280;20879;55.668;37.858;2022-10-26T00:52:42;100305.94;;;-2.74;98.65
34674;BME280;20879;55.668;37.858;2022-10-26T00:55:18;100310.25;;;-2.73;98.81
34674;BME280;20879;55.668;37.858;2022-10-26T00:57:50;100316.25;;;-2.71;98.94
34674;BME280;20879;55.668;37.858;2022-10-26T01:00:20;100305.31;;;-2.70;98.75
34674;BME280;20879;55.668;37.858;2022-10-26T01:02:51;100315.44;;;-2.70;98.86
34674;BME280;20879;55.668;37.858;2022-10-26T01:05:28;100305.16;;;-2.73;98.50
34674;BME280;20879;55.668;37.858;2022-10-26T01:08:01;100305.94;;;-2.74;98.60
34674;BME280;20879;55.668;37.858;2022-10-26T01:10:31;100304.28;;;-2.74;98.52
34674;BME280;20879;55.668;37.858;2022-10-26T01:13:01;100304.19;;;-2.75;98.41
34674;BME280;20879;55.668;37.858;2022-10-26T01:15:37;100298.22;;;-2.77;98.91
34674;BME280;20879;55.668;37.858;2022-10-26T01:18:17;100290.81;;;-2.91;98.89
34674;BME280;20879;55.668;37.858;2022-10-26T01:24:11;100295.25;;;-2.87;99.00
34674;BME280;20879;55.668;37.858;2022-10-26T01:26:56;100320.53;;;-2.70;99.05
34674;BME280;20879;55.668;37.858;2022-10-26T01:32:39;100310.38;;;-2.70;98.35
34674;BME280;20879;55.668;37.858;2022-10-26T01:35:14;100307.69;;;-2.73;98.34
34674;BME280;20879;55.668;37.858;2022-10-26T01:37:50;100302.56;;;-2.75;98.30
34674;BME280;20879;55.668;37.858;2022-10-26T01:40:35;100302.56;;;-2.75;98.37
34674;BME280;20879;55.668;37.858;2022-10-26T01:43:08;100307.69;;;-2.73;98.36
34674;BME280;20879;55.668;37.858;2022-10-26T01:45:42;100295.81;;;-2.74;98.16
34674;BME280;20879;55.668;37.858;2022-10-26T01:48:16;100296.47;;;-2.60;98.39
34674;BME280;20879;55.668;37.858;2022-10-26T01:50:49;100295.88;;;-2.55;98.44
34674;BME280;20879;55.668;37.858;2022-10-26T01:53:20;100288.19;;;-2.56;98.10
34674;BME280;20879;55.668;37.858;2022-10-26T01:55:51;100285.53;;;-2.41;98.08
34674;BME280;20879;55.668;37.858;2022-10-26T02:01:28;100300.38;;;-2.31;97.69
34674;BME280;20879;55.668;37.858;2022-10-26T02:04:12;100287.69;;;-2.31;97.71
34674;BME280;20879;55.668;37.858;2022-10-26T02:06:53;100289.13;;;-2.36;97.23
34674;BME280;20879;55.668;37.858;2022-10-26T02:09:34;100300.50;;;-2.28;97.33
34674;BME280;20879;55.668;37.858;2022-10-26T02:12:13;100301.44;;;-2.26;97.32
34674;BME280;20879;55.668;37.858;2022-10-26T02:14:49;100299.09;;;-2.21;96.99
34674;BME280;20879;55.668;37.858;2022-10-26T02:17:24;100315.06;;;-2.24;96.90
34674;BME280;20879;55.668;37.858;2022-10-26T02:20:00;100313.53;;;-2.20;96.77
34674;BME280;20879;55.668;37.858;2022-10-26T02:22:33;100309.03;;;-2.26;96.65
34674;BME280;20879;55.668;37.858;2022-10-26T02:25:06;100311.09;;;-2.37;96.99
34674;BME280;20879;55.668;37.858;2022-10-26T02:27:45;100313.13;;;-2.48;96.64
34674;BME280;20879;55.668;37.858;2022-10-26T02:30:16;100325.00;;;-2.47;96.97
34674;BME280;20879;55.668;37.858;2022-10-26T02:32:49;100319.78;;;-2.50;97.15
34674;BME280;20879;55.668;37.858;2022-10-26T02:35:24;100314.59;;;-2.53;97.32
34674;BME280;20879;55.668;37.858;2022-10-26T02:37:55;100320.38;;;-2.55;97.64
34674;BME280;20879;55.668;37.858;2022-10-26T02:40:27;100314.31;;;-2.59;97.25
34674;BME280;20879;55.668;37.858;2022-10-26T02:42:59;100311.75;;;-2.59;97.56
34674;BME280;20879;55.668;37.858;2022-10-26T02:45:38;100305.72;;;-2.61;97.60
34674;BME280;20879;55.668;37.858;2022-10-26T02:48:10;100311.75;;;-2.59;97.55
34674;BME280;20879;55.668;37.858;2022-10-26T02:50:50;100309.22;;;-2.59;97.25
34674;BME280;20879;55.668;37.858;2022-10-26T02:53:26;100302.13;;;-2.66;97.26
34674;BME280;20879;55.668;37.858;2022-10-26T02:55:57;100299.44;;;-2.69;97.26
34674;BME280;20879;55.668;37.858;2022-10-26T02:58:30;100305.44;;;-2.67;97.55
34674;BME280;20879;55.668;37.858;2022-10-26T03:01:03;100305.44;;;-2.67;97.81
34674;BME280;20879;55.668;37.858;2022-10-26T03:03:32;100304.81;;;-2.63;97.33
34674;BME280;20879;55.668;37.858;2022-10-26T03:06:04;100311.56;;;-2.64;97.48
34674;BME280;20879;55.668;37.858;2022-10-26T03:08:38;100306.56;;;-2.62;97.83
34674;BME280;20879;55.668;37.858;2022-10-26T03:11:14;100305.81;;;-2.59;97.36
34674;BME280;20879;55.668;37.858;2022-10-26T03:13:43;100301.91;;;-2.53;97.69
34674;BME280;20879;55.668;37.858;2022-10-26T03:16:12;100308.03;;;-2.48;97.19
34674;BME280;20879;55.668;37.858;2022-10-26T03:18:41;100296.13;;;-2.50;97.07
34674;BME280;20879;55.668;37.858;2022-10-26T03:21:13;100304.84;;;-2.43;97.42
34674;BME280;20879;55.668;37.858;2022-10-26T03:23:47;100299.06;;;-2.41;96.81
34674;BME280;20879;55.668;37.858;2022-10-26T03:26:17;100303.50;;;-2.37;96.90
34674;BME280;20879;55.668;37.858;2022-10-26T03:28:51;100296.22;;;-2.29;97.24
34674;BME280;20879;55.668;37.858;2022-10-26T03:31:20;100270.31;;;-2.41;96.91
34674;BME280;20879;55.668;37.858;2022-10-26T03:33:49;100298.25;;;-2.22;97.15
34674;BME280;20879;55.668;37.858;2022-10-26T03:36:20;100295.97;;;-2.16;96.76
34674;BME280;20879;55.668;37.858;2022-10-26T03:38:49;100297.13;;;-2.09;96.24
34674;BME280;20879;55.668;37.858;2022-10-26T03:41:18;100297.22;;;-2.07;96.23
34674;BME280;20879;55.668;37.858;2022-10-26T03:43:48;100294.16;;;-2.00;96.41
34674;BME280;20879;55.668;37.858;2022-10-26T03:46:22;100300.28;;;-1.95;96.29
34674;BME280;20879;55.668;37.858;2022-10-26T03:48:51;100290.19;;;-1.94;95.86
34674;BME280;20879;55.668;37.858;2022-10-26T03:51:22;100304.81;;;-1.88;96.22
34674;BME280;20879;55.668;37.858;2022-10-26T03:53:51;100298.00;;;-1.89;96.05
34674;BME280;20879;55.668;37.858;2022-10-26T03:56:27;100299.56;;;-1.92;95.79
34674;BME280;20879;55.668;37.858;2022-10-26T03:58:56;100292.66;;;-1.95;95.53
34674;BME280;20879;55.668;37.858;2022-10-26T04:01:25;100297.41;;;-2.03;95.83
34674;BME280;20879;55.668;37.858;2022-10-26T04:04:00;100296.41;;;-2.06;95.78
34674;BME280;20879;55.668;37.858;2022-10-26T04:06:31;100296.13;;;-2.13;95.84
34674;BME280;20879;55.668;37.858;2022-10-26T04:09:01;100294.09;;;-2.20;95.77
34674;BME280;20879;55.668;37.858;2022-10-26T04:11:30;100288.75;;;-2.26;96.03
34674;BME280;20879;55.668;37.858;2022-10-26T04:13:59;100290.22;;;-2.31;95.93
34674;BME280;20879;55.668;37.858;2022-10-26T04:16:33;100290.94;;;-2.34;96.30
34674;BME280;20879;55.668;37.858;2022-10-26T04:19:02;100294.19;;;-2.36;96.29
34674;BME280;20879;55.668;37.858;2022-10-26T04:21:40;100277.03;;;-2.42;96.64
34674;BME280;20879;55.668;37.858;2022-10-26T04:24:09;100284.84;;;-2.37;96.99
34674;BME280;20879;55.668;37.858;2022-10-26T04:26:44;100286.72;;;-2.33;96.71
34674;BME280;20879;55.668;37.858;2022-10-26T04:29:13;100288.47;;;-2.32;96.80
34674;BME280;20879;55.668;37.858;2022-10-26T04:31:43;100298.75;;;-2.29;96.90
34674;BME280;20879;55.668;37.858;2022-10-26T04:34:12;100295.56;;;-2.25;96.75
34674;BME280;20879;55.668;37.858;2022-10-26T04:36:43;100294.09;;;-2.20;96.51
34674;BME280;20879;55.668;37.858;2022-10-26T04:39:18;100301.63;;;-2.03;96.98
34674;BME280;20879;55.668;37.858;2022-10-26T04:41:47;100309.25;;;-1.84;96.91
34674;BME280;20879;55.668;37.858;2022-10-26T04:44:16;100311.78;;;-1.64;96.34
34674;BME280;20879;55.668;37.858;2022-10-26T04:46:52;100310.16;;;-1.43;96.18
34674;BME280;20879;55.668;37.858;2022-10-26T04:49:21;100305.16;;;-1.21;95.58
34674;BME280;20879;55.668;37.858;2022-10-26T04:52:04;100315.13;;;-1.05;95.12
34674;BME280;20879;55.668;37.858;2022-10-26T04:54:33;100309.94;;;-0.87;94.53
34674;BME280;20879;55.668;37.858;2022-10-26T04:57:02;100267.25;;;-0.94;94.04
34674;BME280;20879;55.668;37.858;2022-10-26T04:59:38;100307.81;;;-0.55;93.19
34674;BME280;20879;55.668;37.858;2022-10-26T05:02:07;100314.97;;;-0.45;92.54
34674;BME280;20879;55.668;37.858;2022-10-26T05:04:36;100302.09;;;-0.49;92.31
34674;BME280;20879;55.668;37.858;2022-10-26T05:07:07;100317.22;;;-0.52;92.05
34674;BME280;20879;55.668;37.858;2022-10-26T05:09:41;100308.81;;;-0.50;92.15
34674;BME280;20879;55.668;37.858;2022-10-26T05:12:16;100305.59;;;-0.46;91.62
34674;BME280;20879;55.668;37.858;2022-10-26T05:14:46;100310.81;;;-0.43;91.44
34674;BME280;20879;55.668;37.858;2022-10-26T05:17:15;100314.41;;;-0.38;91.36
34674;BME280;20879;55.668;37.858;2022-10-26T05:19:51;100310.34;;;-0.32;91.62
34674;BME280;20879;55.668;37.858;2022-10-26T05:22:31;100305.84;;;-0.17;91.22
34674;BME280;20879;55.668;37.858;2022-10-26T05:25:00;100311.75;;;0.05;91.07
34674;BME280;20879;55.668;37.858;2022-10-26T05:27:29;100309.75;;;0.20;90.29
34674;BME280;20879;55.668;37.858;2022-10-26T05:29:59;100308.47;;;0.31;89.93
34674;BME280;20879;55.668;37.858;2022-10-26T05:32:29;100303.25;;;0.28;89.37
34674;BME280;20879;55.668;37.858;2022-10-26T05:35:01;100305.69;;;0.25;89.30
34674;BME280;20879;55.668;37.858;2022-10-26T05:37:32;100307.16;;;0.43;88.75
34674;BME280;20879;55.668;37.858;2022-10-26T05:40:02;100308.63;;;0.60;88.53
34674;BME280;20879;55.668;37.858;2022-10-26T05:42:31;100308.22;;;0.74;88.09
34674;BME280;20879;55.668;37.858;2022-10-26T05:45:11;100322.41;;;0.91;87.57
34674;BME280;20879;55.668;37.858;2022-10-26T05:47:41;100310.66;;;0.96;86.79
34674;BME280;20879;55.668;37.858;2022-10-26T05:50:12;100313.28;;;0.98;86.57
34674;BME280;20879;55.668;37.858;2022-10-26T05:52:44;100313.31;;;0.99;86.24
34674;BME280;20879;55.668;37.858;2022-10-26T05:55:17;100287.63;;;0.93;86.05
34674;BME280;20879;55.668;37.858;2022-10-26T05:57:52;100296.78;;;1.14;85.90
34674;BME280;20879;55.668;37.858;2022-10-26T06:00:23;100301.00;;;1.12;85.38
34674;BME280;20879;55.668;37.858;2022-10-26T06:03:07;100304.91;;;1.28;83.95
34674;BME280;20879;55.668;37.858;2022-10-26T06:05:49;100304.53;;;1.17;84.57
34674;BME280;20879;55.668;37.858;2022-10-26T06:08:23;100310.34;;;1.13;84.60
34674;BME280;20879;55.668;37.858;2022-10-26T06:10:53;100309.53;;;1.14;85.15
34674;BME280;20879;55.668;37.858;2022-10-26T06:13:25;100310.56;;;1.19;84.72
34674;BME280;20879;55.668;37.858;2022-10-26T06:16:05;100315.28;;;1.34;84.05
34674;BME280;20879;55.668;37.858;2022-10-26T06:18:50;100320.63;;;1.42;83.50
34674;BME280;20879;55.668;37.858;2022-10-26T06:21:41;100317.63;;;1.55;83.34
34674;BME280;20879;55.668;37.858;2022-10-26T06:24:20;100318.75;;;1.63;82.91
34674;BME280;20879;55.668;37.858;2022-10-26T06:26:58;100314.47;;;1.62;82.92
34674;BME280;20879;55.668;37.858;2022-10-26T06:29:39;100325.56;;;1.63;82.28
34674;BME280;20879;55.668;37.858;2022-10-26T06:32:11;100323.53;;;1.52;82.60
34674;BME280;20879;55.668;37.858;2022-10-26T06:34:47;100319.59;;;1.64;82.59
34674;BME280;20879;55.668;37.858;2022-10-26T06:37:18;100306.13;;;1.68;82.32
34674;BME280;20879;55.668;37.858;2022-10-26T06:39:51;100322.22;;;1.94;81.46
34674;BME280;20879;55.668;37.858;2022-10-26T06:42:21;100325.19;;;2.08;81.24
34674;BME280;20879;55.668;37.858;2022-10-26T06:45:02;100320.94;;;2.08;80.14
34674;BME280;20879;55.668;37.858;2022-10-26T06:47:39;100325.13;;;2.06;80.34
34674;BME280;20879;55.668;37.858;2022-10-26T06:50:27;100320.94;;;2.08;78.43
34674;BME280;20879;55.668;37.858;2022-10-26T06:53:08;100324.41;;;2.10;79.87
34674;BME280;20879;55.668;37.858;2022-10-26T06:55:46;100312.22;;;2.32;79.58
34674;BME280;20879;55.668;37.858;2022-10-26T06:58:19;100313.06;;;2.31;79.04
34674;BME280;20879;55.668;37.858;2022-10-26T07:00:51;100310.75;;;2.40;78.98
34674;BME280;20879;55.668;37.858;2022-10-26T07:03:21;100313.94;;;2.32;78.97
34674;BME280;20879;55.668;37.858;2022-10-26T07:05:50;100317.44;;;2.35;79.10
34674;BME280;20879;55.668;37.858;2022-10-26T07:08:20;100314.19;;;2.41;78.66
34674;BME280;20879;55.668;37.858;2022-10-26T07:10:51;100309.91;;;2.41;78.46
34674;BME280;20879;55.668;37.858;2022-10-26T07:13:20;100308.34;;;2.45;78.57
34674;BME280;20879;55.668;37.858;2022-10-26T07:15:49;100312.44;;;2.40;78.18
34674;BME280;20879;55.668;37.858;2022-10-26T07:18:24;100308.41;;;2.18;78.45
34674;BME280;20879;55.668;37.858;2022-10-26T07:20:54;100314.88;;;2.05;79.13
34674;BME280;20879;55.668;37.858;2022-10-26T07:23:23;100322.72;;;2.11;78.87
34674;BME280;20879;55.668;37.858;2022-10-26T07:25:54;100315.34;;;2.22;78.41
34674;BME280;20879;55.668;37.858;2022-10-26T07:28:23;100306.88;;;2.23;78.57
34674;BME280;20879;55.668;37.858;2022-10-26T07:30:52;100299.53;;;2.35;78.71
34674;BME280;20879;55.668;37.858;2022-10-26T07:33:22;100321.44;;;2.57;77.98
34674;BME280;20879;55.668;37.858;2022-10-26T07:35:51;100323.66;;;2.77;77.45
34674;BME280;20879;55.668;37.858;2022-10-26T07:38:21;100321.34;;;2.86;76.90
34674;BME280;20879;55.668;37.858;2022-10-26T07:40:50;100319.81;;;2.93;77.05
34674;BME280;20879;55.668;37.858;2022-10-26T07:43:22;100317.84;;;3.18;76.30
34674;BME280;20879;55.668;37.858;2022-10-26T07:45:51;100321.81;;;3.40;75.90
34674;BME280;20879;55.668;37.858;2022-10-26T07:48:20;100307.44;;;3.46;75.82
34674;BME280;20879;55.668;37.858;2022-10-26T07:50:49;100319.38;;;3.46;75.71
34674;BME280;20879;55.668;37.858;2022-10-26T07:53:24;100312.91;;;3.24;75.79
34674;BME280;20879;55.668;37.858;2022-10-26T07:55:54;100313.16;;;3.00;75.98
34674;BME280;20879;55.668;37.858;2022-10-26T07:58:25;100313.56;;;2.82;76.21
34674;BME280;20879;55.668;37.858;2022-10-26T08:00:54;100333.75;;;2.72;76.74
34674;BME280;20879;55.668;37.858;2022-10-26T08:03:24;100306.13;;;2.59;77.29
34674;BME280;20879;55.668;37.858;2022-10-26T08:05:53;100321.56;;;2.62;77.20
34674;BME280;20879;55.668;37.858;2022-10-26T08:08:22;100316.84;;;2.45;77.26
34674;BME280;20879;55.668;37.858;2022-10-26T08:10:51;100321.69;;;2.35;77.81
34674;BME280;20879;55.668;37.858;2022-10-26T08:13:21;100320.22;;;2.13;77.88
34674;BME280;20879;55.668;37.858;2022-10-26T08:16:02;100324.34;;;2.09;78.79
34674;BME280;20879;55.668;37.858;2022-10-26T08:18:33;100319.41;;;1.85;78.95
34674;BME280;20879;55.668;37.858;2022-10-26T08:21:03;100326.06;;;1.80;79.35
34674;BME280;20879;55.668;37.858;2022-10-26T08:23:37;100324.22;;;1.75;79.46
34674;BME280;20879;55.668;37.858;2022-10-26T08:26:07;100324.97;;;1.71;79.69
34674;BME280;20879;55.668;37.858;2022-10-26T08:28:37;100321.13;;;1.57;79.83
34674;BME280;20879;55.668;37.858;2022-10-26T08:31:10;100325.75;;;1.69;80.27
34674;BME280;20879;55.668;37.858;2022-10-26T08:33:47;100322.50;;;1.74;80.57
34674;BME280;20879;55.668;37.858;2022-10-26T08:36:22;100328.47;;;1.75;80.58
34674;BME280;20879;55.668;37.858;2022-10-26T08:38:52;100320.75;;;1.73;81.04
34674;BME280;20879;55.668;37.858;2022-10-26T08:41:32;100323.63;;;1.84;80.97
34674;BME280;20879;55.668;37.858;2022-10-26T08:44:16;100322.19;;;1.92;80.72
34674;BME280;20879;55.668;37.858;2022-10-26T08:46:54;100320.81;;;2.04;80.72
34674;BME280;20879;55.668;37.858;2022-10-26T08:49:37;100318.81;;;2.24;80.18
34674;BME280;20879;55.668;37.858;2022-10-26T08:52:11;100324.44;;;2.42;79.64
34674;BME280;20879;55.668;37.858;2022-10-26T08:54:44;100322.44;;;2.62;78.80
34674;BME280;20879;55.668;37.858;2022-10-26T08:57:19;100322.09;;;2.82;78.49
34674;BME280;20879;55.668;37.858;2022-10-26T08:59:54;100320.19;;;3.08;77.76
34674;BME280;20879;55.668;37.858;2022-10-26T09:02:26;100313.84;;;3.29;77.38
34674;BME280;20879;55.668;37.858;2022-10-26T09:04:57;100313.25;;;3.39;76.66
34674;BME280;20879;55.668;37.858;2022-10-26T09:07:39;100298.13;;;3.48;75.71
34674;BME280;20879;55.668;37.858;2022-10-26T09:13:16;100302.88;;;3.71;75.07
34674;BME280;20879;55.668;37.858;2022-10-26T09:15:58;100306.03;;;3.99;74.86
34674;BME280;20879;55.668;37.858;2022-10-26T09:18:42;100293.69;;;4.22;73.59
34674;BME280;20879;55.668;37.858;2022-10-26T09:21:39;100302.06;;;4.58;72.89
34674;BME280;20879;55.668;37.858;2022-10-26T09:24:14;100288.09;;;4.43;72.26
34674;BME280;20879;55.668;37.858;2022-10-26T09:26:52;100310.72;;;4.63;71.57
34674;BME280;20879;55.668;37.858;2022-10-26T09:29:32;100304.91;;;4.71;72.17
34674;BME280;20879;55.668;37.858;2022-10-26T09:32:03;100293.16;;;4.87;71.65
34674;BME280;20879;55.668;37.858;2022-10-26T09:34:50;100300.34;;;5.05;70.80
34674;BME280;20879;55.668;37.858;2022-10-26T09:37:27;100297.84;;;5.10;70.78
34674;BME280;20879;55.668;37.858;2022-10-26T09:40:06;100296.28;;;5.18;70.16
34674;BME280;20879;55.668;37.858;2022-10-26T09:42:40;100287.88;;;5.29;70.04
34674;BME280;20879;55.668;37.858;2022-10-26T09:45:15;100293.81;;;5.26;68.68
34674;BME280;20879;55.668;37.858;2022-10-26T09:47:49;100302.28;;;5.20;68.83
34674;BME280;20879;55.668;37.858;2022-10-26T09:50:33;100303.13;;;5.19;67.58
34674;BME280;20879;55.668;37.858;2022-10-26T09:53:08;100300.69;;;5.27;68.80
34674;BME280;20879;55.668;37.858;2022-10-26T09:55:41;100300.09;;;5.45;67.77
34674;BME280;20879;55.668;37.858;2022-10-26T09:58:14;100292.44;;;5.48;67.48
34674;BME280;20879;55.668;37.858;2022-10-26T10:00:44;100294.31;;;5.60;67.23
34674;BME280;20879;55.668;37.858;2022-10-26T10:03:21;100296.00;;;5.58;66.49
34674;BME280;20879;55.668;37.858;2022-10-26T10:06:15;100296.88;;;5.60;65.94
34674;BME280;20879;55.668;37.858;2022-10-26T10:09:04;100300.41;;;5.67;65.94
34674;BME280;20879;55.668;37.858;2022-10-26T10:11:38;100298.72;;;5.69;66.37
34674;BME280;20879;55.668;37.858;2022-10-26T10:14:08;100291.78;;;5.62;65.56
34674;BME280;20879;55.668;37.858;2022-10-26T10:16:53;100294.31;;;5.60;64.38
34674;BME280;20879;55.668;37.858;2022-10-26T10:19:25;100300.41;;;5.67;65.67
34674;BME280;20879;55.668;37.858;2022-10-26T10:21:58;100299.59;;;5.71;64.82
34674;BME280;20879;55.668;37.858;2022-10-26T10:24:34;100293.31;;;5.50;65.90
34674;BME280;20879;55.668;37.858;2022-10-26T10:27:15;100289.13;;;5.57;65.42
34674;BME280;20879;55.668;37.858;2022-10-26T10:29:47;100290.97;;;5.66;65.87
34674;BME280;20879;55.668;37.858;2022-10-26T10:32:18;100288.59;;;5.81;65.13
34674;BME280;20879;55.668;37.858;2022-10-26T10:34:49;100292.03;;;5.80;65.11
34674;BME280;20879;55.668;37.858;2022-10-26T10:37:28;100287.81;;;5.85;64.43
34674;BME280;20879;55.668;37.858;2022-10-26T10:40:00;100294.84;;;5.97;64.77
34674;BME280;20879;55.668;37.858;2022-10-26T10:42:33;100288.88;;;6.00;64.35
34674;BME280;20879;55.668;37.858;2022-10-26T10:45:05;100288.66;;;5.84;64.96
34674;BME280;20879;55.668;37.858;2022-10-26T10:47:36;100288.31;;;5.58;65.06
34674;BME280;20879;55.668;37.858;2022-10-26T10:50:28;100286.28;;;5.37;65.94
34674;BME280;20879;55.668;37.858;2022-10-26T10:53:17;100290.59;;;5.39;66.28
34674;BME280;20879;55.668;37.858;2022-10-26T10:55:58;100294.09;;;5.45;66.06
34674;BME280;20879;55.668;37.858;2022-10-26T10:58:46;100291.56;;;5.46;66.15
34674;BME280;20879;55.668;37.858;2022-10-26T11:01:29;100295.63;;;5.32;66.36
34674;BME280;20879;55.668;37.858;2022-10-26T11:04:33;100260.78;;;4.93;66.78
34674;BME280;20879;55.668;37.858;2022-10-26T11:07:05;100297.59;;;4.96;67.25
34674;BME280;20879;55.668;37.858;2022-10-26T11:09:41;100305.25;;;4.93;67.52
34674;BME280;20879;55.668;37.858;2022-10-26T11:12:15;100304.25;;;4.83;67.86
34674;BME280;20879;55.668;37.858;2022-10-26T11:14:50;100302.50;;;4.82;67.94
34674;BME280;20879;55.668;37.858;2022-10-26T11:17:24;100301.69;;;4.83;67.91
34674;BME280;20879;55.668;37.858;2022-10-26T11:19:57;100306.28;;;5.03;67.95
34674;BME280;20879;55.668;37.858;2022-10-26T11:22:34;100290.00;;;5.01;67.27
34674;BME280;20879;55.668;37.858;2022-10-26T11:25:12;100291.19;;;5.21;67.61
34674;BME280;20879;55.668;37.858;2022-10-26T11:27:46;100274.72;;;5.08;67.41
34674;BME280;20879;55.668;37.858;2022-10-26T11:30:23;100297.16;;;5.20;67.54
34674;BME280;20879;55.668;37.858;2022-10-26T11:33:03;100289.34;;;5.14;67.38
34674;BME280;20879;55.668;37.858;2022-10-26T11:35:41;100290.22;;;5.15;67.36
34674;BME280;20879;55.668;37.858;2022-10-26T11:38:22;100297.09;;;5.16;67.37
34674;BME280;20879;55.668;37.858;2022-10-26T11:41:19;100295.31;;;5.13;67.52
34674;BME280;20879;55.668;37.858;2022-10-26T11:43:52;100280.50;;;4.97;67.92
34674;BME280;20879;55.668;37.858;2022-10-26T11:46:31;100282.22;;;4.98;67.98
34674;BME280;20879;55.668;37.858;2022-10-26T11:49:05;100288.13;;;4.92;67.90
34674;BME280;20879;55.668;37.858;2022-10-26T11:51:42;100284.47;;;4.78;68.67
34674;BME280;20879;55.668;37.858;2022-10-26T11:54:18;100284.41;;;4.75;68.75
34674;BME280;20879;55.668;37.858;2022-10-26T11:56:52;100287.88;;;4.77;69.28
34674;BME280;20879;55.668;37.858;2022-10-26T11:59:24;100284.50;;;4.79;68.77
34674;BME280;20879;55.668;37.858;2022-10-26T12:02:03;100278.47;;;4.79;68.66
34674;BME280;20879;55.668;37.858;2022-10-26T12:04:35;100280.94;;;4.72;69.18
34674;BME280;20879;55.668;37.858;2022-10-26T12:07:09;100261.97;;;4.63;68.68
34674;BME280;20879;55.668;37.858;2022-10-26T12:09:46;100275.97;;;4.80;69.15
34674;BME280;20879;55.668;37.858;2022-10-26T12:12:23;100259.91;;;4.92;69.11
34674;BME280;20879;55.668;37.858;2022-10-26T12:15:15;100273.63;;;4.94;68.51
34674;BME280;20879;55.668;37.858;2022-10-26T12:18:15;100263.00;;;4.74;68.59
34674;BME280;20879;55.668;37.858;2022-10-26T12:21:14;100270.16;;;4.90;68.56
34674;BME280;20879;55.668;37.858;2022-10-26T12:23:54;100258.00;;;4.80;67.67
34674;BME280;20879;55.668;37.858;2022-10-26T12:26:50;100263.19;;;4.83;67.56
34674;BME280;20879;55.668;37.858;2022-10-26T12:29:29;100267.28;;;4.73;66.78
34674;BME280;20879;55.668;37.858;2022-10-26T12:31:58;100274.84;;;4.64;67.48
34674;BME280;20879;55.668;37.858;2022-10-26T12:37:33;100272.00;;;4.50;68.11
34674;BME280;20879;55.668;37.858;2022-10-26T12:43:32;100270.03;;;4.35;69.11
34674;BME280;20879;55.668;37.858;2022-10-26T12:56:04;100269.34;;;3.59;70.64
34674;BME280;20879;55.668;37.858;2022-10-26T12:58:55;100259.75;;;3.50;71.52
34674;BME280;20879;55.668;37.858;2022-10-26T13:05:01;100268.41;;;3.57;71.98
34674;BME280;20879;55.668;37.858;2022-10-26T13:07:35;100263.28;;;3.57;72.29
34674;BME280;20879;55.668;37.858;2022-10-26T13:10:17;100266.63;;;3.54;72.81
34674;BME280;20879;55.668;37.858;2022-10-26T13:12:52;100263.91;;;3.46;72.81
34674;BME280;20879;55.668;37.858;2022-10-26T13:15:27;100268.94;;;3.42;73.21
34674;BME280;20879;55.668;37.858;2022-10-26T13:18:01;100261.13;;;3.36;73.41
34674;BME280;20879;55.668;37.858;2022-10-26T13:20:37;100266.25;;;3.36;73.46
34674;BME280;20879;55.668;37.858;2022-10-26T13:23:24;100270.41;;;3.32;74.00
34674;BME280;20879;55.668;37.858;2022-10-26T13:26:02;100248.78;;;3.19;74.24
34674;BME280;20879;55.668;37.858;2022-10-26T13:28:46;100266.06;;;3.28;74.67
34674;BME280;20879;55.668;37.858;2022-10-26T13:34:25;100274.47;;;3.22;75.11
34674;BME280;20879;55.668;37.858;2022-10-26T13:37:06;100271.00;;;3.20;75.34
34674;BME280;20879;55.668;37.858;2022-10-26T13:39:42;100270.00;;;3.13;75.47
34674;BME280;20879;55.668;37.858;2022-10-26T13:42:12;100275.19;;;3.17;75.74
34674;BME280;20879;55.668;37.858;2022-10-26T13:45:04;100274.88;;;3.04;75.70
34674;BME280;20879;55.668;37.858;2022-10-26T13:47:41;100273.06;;;3.00;76.63
34674;BME280;20879;55.668;37.858;2022-10-26T13:50:15;100228.00;;;2.70;76.76
34674;BME280;20879;55.668;37.858;2022-10-26T13:52:47;100260.06;;;2.91;77.04
34674;BME280;20879;55.668;37.858;2022-10-26T13:55:22;100270.19;;;2.86;77.30
34674;BME280;20879;55.668;37.858;2022-10-26T13:58:08;100256.16;;;2.70;78.09
34674;BME280;20879;55.668;37.858;2022-10-26T14:01:03;100274.38;;;2.83;78.09